Time;durP1;ratioP1;P1;durP2;ratioP2;P2;SDS_P1;SDS_P2;PMS_P1;PMS_P2;Temp;Humidity;BMP_temperature;BMP_pressure;BME280_temperature;BME280_humidity;BME280_pressure;Samples;Min_cycle;Max_cycle;Signal;HPM_P1;HPM_P2
2024/03/18 00:04:46;;;;;;;36.90;23.70;;;;;;;;;;12939103;23;20410;-91
2024/03/18 00:09:50;;;;;;;36.47;24.30;;;;;;;;;;12909342;22;20380;-91
2024/03/18 00:14:54;;;;;;;41.07;26.03;;;;;;;;;;12915892;22;20446;-90
2024/03/18 00:19:57;;;;;;;34.70;23.63;;;;;;;;;;12943867;23;20368;-91
2024/03/18 00:25:01;;;;;;;32.60;23.83;;;;;;;;;;12943092;23;20689;-91
2024/03/18 00:30:04;;;;;;;36.73;24.40;;;;;;;;;;12921518;23;20368;-91
2024/03/18 00:35:09;;;;;;;39.63;24.90;;;;;;;;;;12922287;23;20391;-91
2024/03/18 00:40:13;;;;;;;40.45;25.70;;;;;;;;;;12921007;23;20384;-91
2024/03/18 00:45:16;;;;;;;37.45;24.42;;;;;;;;;;12942973;23;20415;-91
2024/03/18 00:50:18;;;;;;;38.17;25.27;;;;;;;;;;12921245;23;20856;-91
2024/03/18 00:55:22;;;;;;;39.33;26.73;;;;;;;;;;12921581;23;20364;-90
2024/03/18 01:00:24;;;;;;;47.20;29.15;;;;;;;;;;12921725;23;20380;-91
2024/03/18 01:05:26;;;;;;;47.25;31.02;;;;;;;;;;12920704;23;20449;-90
2024/03/18 01:10:30;;;;;;;63.67;36.55;;;;;;;;;;12920707;23;20372;-90
2024/03/18 01:15:32;;;;;;;56.57;34.63;;;;;;;;;;12920527;23;20372;-91
2024/03/18 01:20:35;;;;;;;58.08;35.47;;;;;;;;;;12920464;23;20910;-90
2024/03/18 01:25:39;;;;;;;50.67;32.38;;;;;;;;;;12921642;23;20376;-91
2024/03/18 01:30:42;;;;;;;46.95;29.17;;;;;;;;;;12920194;23;20406;-91
2024/03/18 01:35:44;;;;;;;44.60;28.75;;;;;;;;;;12919149;23;20368;-90
2024/03/18 01:40:48;;;;;;;46.83;28.03;;;;;;;;;;12920461;23;20376;-91
2024/03/18 01:45:50;;;;;;;44.03;28.58;;;;;;;;;;12920762;23;20406;-90
2024/03/18 01:50:53;;;;;;;40.83;26.80;;;;;;;;;;12934686;23;20364;-89
2024/03/18 01:55:57;;;;;;;42.28;27.38;;;;;;;;;;12919452;23;20364;-91
2024/03/18 02:01:00;;;;;;;40.80;26.83;;;;;;;;;;12920624;23;20384;-91
2024/03/18 02:06:02;;;;;;;41.80;27.33;;;;;;;;;;12920397;23;20422;-90
2024/03/18 02:11:06;;;;;;;41.93;27.20;;;;;;;;;;12920537;23;20579;-90
2024/03/18 02:16:08;;;;;;;40.97;27.85;;;;;;;;;;12941526;23;20368;-91
2024/03/18 02:21:10;;;;;;;40.78;27.15;;;;;;;;;;12941621;23;20372;-91
2024/03/18 02:26:14;;;;;;;41.83;28.17;;;;;;;;;;12945028;23;20364;-91
2024/03/18 02:31:16;;;;;;;42.50;28.57;;;;;;;;;;12946282;23;20432;-91
2024/03/18 02:36:19;;;;;;;44.83;28.33;;;;;;;;;;12945694;23;20368;-90
2024/03/18 02:41:22;;;;;;;42.17;27.57;;;;;;;;;;12924264;23;20944;-91
2024/03/18 02:46:25;;;;;;;43.73;28.60;;;;;;;;;;12924394;23;20364;-91
2024/03/18 02:51:27;;;;;;;43.22;28.05;;;;;;;;;;12924531;23;20403;-91
2024/03/18 02:56:30;;;;;;;48.25;28.58;;;;;;;;;;12922523;23;20369;-90
2024/03/18 03:01:32;;;;;;;45.35;28.25;;;;;;;;;;12944853;23;20384;-91
2024/03/18 03:06:34;;;;;;;41.50;27.33;;;;;;;;;;12923456;23;20426;-91
2024/03/18 03:11:38;;;;;;;43.60;27.92;;;;;;;;;;12922897;23;20368;-91
2024/03/18 03:16:40;;;;;;;44.83;28.70;;;;;;;;;;12923460;23;20423;-91
2024/03/18 03:21:43;;;;;;;45.17;29.88;;;;;;;;;;12923230;23;20442;-90
2024/03/18 03:26:47;;;;;;;44.93;28.97;;;;;;;;;;12922577;23;20364;-91
2024/03/18 03:31:49;;;;;;;47.43;29.17;;;;;;;;;;12922892;23;20399;-91
2024/03/18 03:36:51;;;;;;;44.60;28.20;;;;;;;;;;12922841;23;20360;-91
2024/03/18 03:41:55;;;;;;;43.73;27.50;;;;;;;;;;12943810;23;20372;-90
2024/03/18 03:46:57;;;;;;;45.97;29.97;;;;;;;;;;12923043;23;20452;-91
2024/03/18 03:52:00;;;;;;;43.17;28.87;;;;;;;;;;12922452;23;20426;-91
2024/03/18 03:57:03;;;;;;;47.22;29.42;;;;;;;;;;12942059;23;20395;-90
2024/03/18 04:02:06;;;;;;;46.00;28.60;;;;;;;;;;12921904;23;20380;-90
2024/03/18 04:07:08;;;;;;;45.38;28.63;;;;;;;;;;12943763;23;20422;-90
2024/03/18 04:12:12;;;;;;;46.63;29.10;;;;;;;;;;12921632;23;20863;-91
2024/03/18 04:17:15;;;;;;;48.60;29.30;;;;;;;;;;12943024;23;20434;-91
2024/03/18 04:22:17;;;;;;;48.63;30.53;;;;;;;;;;12920729;23;20443;-90
2024/03/18 04:27:22;;;;;;;47.78;29.67;;;;;;;;;;12942523;23;20662;-91
2024/03/18 04:32:25;;;;;;;50.85;29.58;;;;;;;;;;12921444;23;20364;-91
2024/03/18 04:37:27;;;;;;;52.47;30.40;;;;;;;;;;12921664;23;20426;-91
2024/03/18 04:42:30;;;;;;;50.87;31.27;;;;;;;;;;12920655;23;20670;-91
2024/03/18 04:47:33;;;;;;;53.20;32.53;;;;;;;;;;12919647;23;20711;-91
2024/03/18 04:52:35;;;;;;;55.42;33.08;;;;;;;;;;12921546;23;20398;-90
2024/03/18 04:57:39;;;;;;;55.08;32.95;;;;;;;;;;12921397;23;20405;-91
2024/03/18 05:02:42;;;;;;;52.88;32.90;;;;;;;;;;12921791;23;20412;-91
2024/03/18 05:07:45;;;;;;;50.87;31.77;;;;;;;;;;12921223;23;20909;-91
2024/03/18 05:12:48;;;;;;;49.87;31.73;;;;;;;;;;12941095;23;20376;-91
2024/03/18 05:17:50;;;;;;;52.05;30.50;;;;;;;;;;12920671;23;20406;-91
2024/03/18 05:22:53;;;;;;;51.90;31.30;;;;;;;;;;12919316;23;20438;-91
2024/03/18 05:27:56;;;;;;;53.93;31.40;;;;;;;;;;12920213;23;20414;-91
2024/03/18 05:32:58;;;;;;;61.30;33.60;;;;;;;;;;12920749;23;20902;-92
2024/03/18 05:38:01;;;;;;;53.85;32.70;;;;;;;;;;12940973;23;20388;-92
2024/03/18 05:43:04;;;;;;;54.83;31.67;;;;;;;;;;12919343;23;20698;-91
2024/03/18 05:48:08;;;;;;;50.08;31.35;;;;;;;;;;12920319;23;20368;-92
2024/03/18 05:53:10;;;;;;;48.60;29.27;;;;;;;;;;12919371;23;20364;-91
2024/03/18 05:58:14;;;;;;;49.93;29.37;;;;;;;;;;12920318;23;20372;-91
2024/03/18 06:03:16;;;;;;;52.08;30.35;;;;;;;;;;12940547;23;20462;-92
2024/03/18 06:08:18;;;;;;;49.90;29.30;;;;;;;;;;12940969;23;20430;-93
2024/03/18 06:13:22;;;;;;;48.38;29.15;;;;;;;;;;12918328;23;20364;-92
2024/03/18 06:18:24;;;;;;;49.30;29.67;;;;;;;;;;12919466;23;20690;-92
2024/03/18 06:23:27;;;;;;;47.63;28.95;;;;;;;;;;12919145;23;20403;-92
2024/03/18 06:28:32;;;;;;;51.08;29.38;;;;;;;;;;12920267;23;20902;-92
2024/03/18 06:33:34;;;;;;;47.42;27.77;;;;;;;;;;12918343;23;20360;-92
2024/03/18 06:38:37;;;;;;;45.83;28.38;;;;;;;;;;12925336;23;20376;-91
2024/03/18 06:43:41;;;;;;;44.92;27.33;;;;;;;;;;12919577;23;21132;-91
2024/03/18 06:48:43;;;;;;;49.00;28.48;;;;;;;;;;12919085;23;20384;-92
2024/03/18 06:53:45;;;;;;;47.33;28.15;;;;;;;;;;12919564;23;20438;-92
2024/03/18 06:58:48;;;;;;;45.03;27.20;;;;;;;;;;12933040;23;20891;-92
2024/03/18 07:03:51;;;;;;;43.08;26.33;;;;;;;;;;12913840;23;20396;-92
2024/03/18 07:08:53;;;;;;;43.53;26.30;;;;;;;;;;12915925;23;20372;-92
2024/03/18 07:13:56;;;;;;;45.53;26.15;;;;;;;;;;12944545;23;20840;-92
2024/03/18 07:18:59;;;;;;;47.08;26.10;;;;;;;;;;12923389;23;20373;-92
2024/03/18 07:24:01;;;;;;;43.42;25.52;;;;;;;;;;12923643;23;20426;-92
2024/03/18 07:29:04;;;;;;;42.37;27.37;;;;;;;;;;12922675;23;20373;-92
2024/03/18 07:34:06;;;;;;;49.27;27.27;;;;;;;;;;12923442;23;20938;-92
2024/03/18 07:39:09;;;;;;;41.92;25.83;;;;;;;;;;12922251;23;20415;-91
2024/03/18 07:44:12;;;;;;;45.75;25.98;;;;;;;;;;12945110;23;20368;-92
2024/03/18 07:49:15;;;;;;;43.80;25.90;;;;;;;;;;12921116;23;20437;-92
2024/03/18 07:54:18;;;;;;;43.87;24.93;;;;;;;;;;12921546;23;20820;-92
2024/03/18 07:59:21;;;;;;;45.37;26.27;;;;;;;;;;12921054;23;20457;-92
2024/03/18 08:04:23;;;;;;;42.80;26.17;;;;;;;;;;12942643;23;20744;-92
2024/03/18 08:09:25;;;;;;;43.50;25.42;;;;;;;;;;12941835;23;20364;-92
2024/03/18 08:14:30;;;;;;;43.85;26.02;;;;;;;;;;12921205;23;20427;-92
2024/03/18 08:19:32;;;;;;;41.42;24.13;;;;;;;;;;12919883;23;20372;-91
2024/03/18 08:24:35;;;;;;;40.05;24.83;;;;;;;;;;12920481;23;20430;-93
2024/03/18 08:29:38;;;;;;;39.87;23.77;;;;;;;;;;12920345;23;20752;-92
2024/03/18 08:34:43;;;;;;;39.53;23.57;;;;;;;;;;12922206;23;20372;-92
2024/03/18 08:39:45;;;;;;;42.25;23.48;;;;;;;;;;12919147;23;20422;-92
2024/03/18 08:44:49;;;;;;;37.27;22.67;;;;;;;;;;12921487;23;20364;-92
2024/03/18 08:49:51;;;;;;;40.10;22.98;;;;;;;;;;12918784;23;20674;-92
2024/03/18 08:54:54;;;;;;;43.30;24.23;;;;;;;;;;12920222;23;20364;-92
2024/03/18 08:59:58;;;;;;;42.03;23.45;;;;;;;;;;12918207;23;20384;-92
2024/03/18 09:05:00;;;;;;;38.97;23.40;;;;;;;;;;12918814;23;20373;-91
2024/03/18 09:10:03;;;;;;;43.55;25.48;;;;;;;;;;12921194;23;20439;-91
2024/03/18 09:15:07;;;;;;;40.65;24.85;;;;;;;;;;12920653;23;20364;-92
2024/03/18 09:20:10;;;;;;;43.30;25.67;;;;;;;;;;12919825;23;20918;-92
2024/03/18 09:25:12;;;;;;;43.00;25.57;;;;;;;;;;12920721;23;20371;-92
2024/03/18 09:30:17;;;;;;;40.17;23.60;;;;;;;;;;12919296;23;20380;-92
2024/03/18 09:35:19;;;;;;;43.95;24.73;;;;;;;;;;12918650;23;20833;-92
2024/03/18 09:40:22;;;;;;;38.30;23.40;;;;;;;;;;12918895;23;20388;-92
2024/03/18 09:45:26;;;;;;;37.80;23.20;;;;;;;;;;12939283;23;20372;-91
2024/03/18 09:50:29;;;;;;;41.05;23.13;;;;;;;;;;12921333;23;20364;-92
2024/03/18 09:55:33;;;;;;;39.57;22.77;;;;;;;;;;12919024;23;20396;-90
2024/03/18 10:00:38;;;;;;;38.60;22.02;;;;;;;;;;12920450;23;20426;-91
2024/03/18 10:05:42;;;;;;;40.50;23.20;;;;;;;;;;12920582;23;20460;-91
2024/03/18 10:10:45;;;;;;;38.03;22.20;;;;;;;;;;12918242;23;20380;-93
2024/03/18 10:15:51;;;;;;;39.57;23.03;;;;;;;;;;12918790;23;20901;-93
2024/03/18 10:20:54;;;;;;;39.05;23.13;;;;;;;;;;12919640;23;20418;-93
2024/03/18 10:25:57;;;;;;;38.60;21.95;;;;;;;;;;12916339;23;20433;-92
2024/03/18 10:31:01;;;;;;;37.78;22.52;;;;;;;;;;12918470;23;20442;-92
2024/03/18 10:36:05;;;;;;;36.88;22.13;;;;;;;;;;12924655;23;20403;-93
2024/03/18 10:41:13;;;;;;;38.83;22.60;;;;;;;;;;12866693;23;20380;-93
2024/03/18 10:46:17;;;;;;;38.38;21.65;;;;;;;;;;12922823;23;20395;-93
2024/03/18 10:51:20;;;;;;;36.88;21.08;;;;;;;;;;12919643;23;20368;-93
2024/03/18 10:56:23;;;;;;;34.50;19.70;;;;;;;;;;12921866;23;20377;-93
2024/03/18 11:01:26;;;;;;;32.25;19.80;;;;;;;;;;12921336;23;20419;-93
2024/03/18 11:06:28;;;;;;;34.28;20.13;;;;;;;;;;12920999;23;20368;-93
2024/03/18 11:11:31;;;;;;;36.03;20.33;;;;;;;;;;12918959;23;20372;-92
2024/03/18 11:16:35;;;;;;;35.50;20.95;;;;;;;;;;12922821;23;20381;-91
2024/03/18 11:21:37;;;;;;;34.78;20.58;;;;;;;;;;12921024;23;20498;-90
2024/03/18 11:26:41;;;;;;;35.87;21.03;;;;;;;;;;12920754;23;20369;-91
2024/03/18 11:31:50;;;;;;;41.63;22.90;;;;;;;;;;12921701;23;20398;-91
2024/03/18 11:36:54;;;;;;;37.72;21.60;;;;;;;;;;12920885;23;20364;-90
2024/03/18 11:42:00;;;;;;;36.53;21.85;;;;;;;;;;12920246;23;20446;-90
2024/03/18 11:47:06;;;;;;;37.85;21.27;;;;;;;;;;12921936;23;20369;-89
2024/03/18 11:52:13;;;;;;;40.45;23.27;;;;;;;;;;12922647;23;20376;-90
2024/03/18 11:57:15;;;;;;;38.90;22.67;;;;;;;;;;12920780;23;20424;-91
2024/03/18 12:02:18;;;;;;;37.20;21.80;;;;;;;;;;12923976;23;20445;-90
2024/03/18 12:07:20;;;;;;;37.58;22.92;;;;;;;;;;12938692;23;20380;-90
2024/03/18 12:12:23;;;;;;;40.33;22.57;;;;;;;;;;12920608;23;20454;-91
2024/03/18 12:17:27;;;;;;;36.85;23.13;;;;;;;;;;12917884;22;20372;-89
2024/03/18 12:22:29;;;;;;;42.80;25.23;;;;;;;;;;12936703;22;20443;-93
2024/03/18 12:32:52;;;;;;;39.17;23.95;;;;;;;;;;12934064;23;20840;-91
2024/03/18 12:37:56;;;;;;;37.55;22.80;;;;;;;;;;12912253;22;20455;-90
2024/03/18 12:42:59;;;;;;;39.27;22.67;;;;;;;;;;12911019;22;20399;-90
2024/03/18 12:48:03;;;;;;;42.78;24.35;;;;;;;;;;12916789;22;20919;-90
2024/03/18 12:53:09;;;;;;;39.73;23.53;;;;;;;;;;12912021;22;20376;-91
2024/03/18 12:58:11;;;;;;;39.80;23.33;;;;;;;;;;12905609;22;20380;-91
2024/03/18 13:03:16;;;;;;;41.10;23.67;;;;;;;;;;12909687;22;20454;-90
2024/03/18 13:08:20;;;;;;;40.30;23.40;;;;;;;;;;12913890;23;20462;-91
2024/03/18 13:13:25;;;;;;;36.97;22.67;;;;;;;;;;12917180;23;20407;-90
2024/03/18 13:18:29;;;;;;;39.47;23.58;;;;;;;;;;12919167;23;20356;-91
2024/03/18 13:23:32;;;;;;;41.23;24.50;;;;;;;;;;12920824;23;20380;-89
2024/03/18 13:28:35;;;;;;;38.72;23.13;;;;;;;;;;12925017;23;20368;-86
2024/03/18 13:33:38;;;;;;;37.53;22.33;;;;;;;;;;12917845;23;20921;-91
2024/03/18 13:38:41;;;;;;;34.08;21.17;;;;;;;;;;12917024;23;20829;-91
2024/03/18 13:43:44;;;;;;;31.40;19.15;;;;;;;;;;12920205;23;20770;-91
2024/03/18 13:48:47;;;;;;;33.30;19.83;;;;;;;;;;12915672;23;20685;-91
2024/03/18 13:53:51;;;;;;;30.20;18.27;;;;;;;;;;12918050;23;20364;-91
2024/03/18 13:58:54;;;;;;;33.53;20.70;;;;;;;;;;12914058;23;20360;-90
2024/03/18 14:03:57;;;;;;;36.88;20.98;;;;;;;;;;12915258;23;20449;-90
2024/03/18 14:08:59;;;;;;;44.60;25.75;;;;;;;;;;12919081;23;20368;-89
2024/03/18 14:14:02;;;;;;;35.75;22.70;;;;;;;;;;12918331;23;20368;-89
2024/03/18 14:19:06;;;;;;;32.47;18.65;;;;;;;;;;12917607;23;20398;-89
2024/03/18 14:24:08;;;;;;;30.88;19.27;;;;;;;;;;12920380;23;20388;-90
2024/03/18 14:29:11;;;;;;;28.80;17.90;;;;;;;;;;12920945;23;20425;-89
2024/03/18 14:34:14;;;;;;;27.95;16.65;;;;;;;;;;12918958;23;20371;-89
2024/03/18 14:39:17;;;;;;;27.20;16.52;;;;;;;;;;12914474;23;20438;-90
2024/03/18 14:44:19;;;;;;;26.63;16.17;;;;;;;;;;12919437;23;20434;-89
2024/03/18 14:49:23;;;;;;;26.17;16.33;;;;;;;;;;12923828;23;20365;-89
2024/03/18 14:54:25;;;;;;;25.10;15.97;;;;;;;;;;12916926;23;20376;-90
2024/03/18 14:59:28;;;;;;;28.05;16.63;;;;;;;;;;12916747;23;20372;-89
2024/03/18 15:04:34;;;;;;;27.93;17.17;;;;;;;;;;12915154;23;20380;-90
2024/03/18 15:09:36;;;;;;;28.03;17.47;;;;;;;;;;12917314;23;20421;-89
2024/03/18 15:14:38;;;;;;;34.70;18.38;;;;;;;;;;12917434;23;20373;-89
2024/03/18 15:19:43;;;;;;;29.98;19.00;;;;;;;;;;12912069;23;20686;-89
2024/03/18 15:24:53;;;;;;;38.33;21.48;;;;;;;;;;12916943;23;20380;-90
2024/03/18 15:29:55;;;;;;;37.37;21.13;;;;;;;;;;12911029;23;20368;-89
2024/03/18 15:34:59;;;;;;;35.47;20.98;;;;;;;;;;12912912;23;20376;-89
2024/03/18 15:40:01;;;;;;;33.88;21.52;;;;;;;;;;12915309;23;20368;-90
2024/03/18 15:45:04;;;;;;;31.85;20.05;;;;;;;;;;12916067;23;20380;-88
2024/03/18 15:50:09;;;;;;;35.90;21.25;;;;;;;;;;12912943;23;20403;-89
2024/03/18 15:55:12;;;;;;;41.70;24.35;;;;;;;;;;12888402;23;20364;-90
2024/03/18 16:00:16;;;;;;;39.95;24.33;;;;;;;;;;12916533;23;20418;-90
2024/03/18 16:05:20;;;;;;;38.80;23.37;;;;;;;;;;12913085;22;20450;-89
2024/03/18 16:10:26;;;;;;;50.20;30.50;;;;;;;;;;12912501;22;20384;-89
2024/03/18 16:15:29;;;;;;;32.53;20.30;;;;;;;;;;12915041;22;20369;-89
2024/03/18 16:20:33;;;;;;;40.85;24.10;;;;;;;;;;12904768;22;20384;-89
2024/03/18 16:25:35;;;;;;;37.83;21.75;;;;;;;;;;12906704;23;20454;-90
2024/03/18 16:30:37;;;;;;;39.77;22.70;;;;;;;;;;12911668;22;21150;-90
2024/03/18 16:35:41;;;;;;;35.85;22.00;;;;;;;;;;12923907;22;20368;-88
2024/03/18 16:40:43;;;;;;;35.67;20.63;;;;;;;;;;12923764;22;20373;-89
2024/03/18 16:45:47;;;;;;;37.90;21.50;;;;;;;;;;12929954;22;20380;-89
2024/03/18 16:50:52;;;;;;;33.13;19.63;;;;;;;;;;12910995;22;20880;-90
2024/03/18 16:55:54;;;;;;;36.73;21.40;;;;;;;;;;12912822;22;21308;-89
2024/03/18 17:00:56;;;;;;;35.58;21.55;;;;;;;;;;12913364;23;20369;-90
2024/03/18 17:06:02;;;;;;;34.70;20.63;;;;;;;;;;12912961;22;20384;-90
2024/03/18 17:11:07;;;;;;;35.17;20.60;;;;;;;;;;12912389;22;20437;-90
2024/03/18 17:16:13;;;;;;;35.67;21.03;;;;;;;;;;12912548;22;20381;-89
2024/03/18 17:21:19;;;;;;;32.80;20.20;;;;;;;;;;12912423;22;20453;-89
2024/03/18 17:26:23;;;;;;;37.13;20.50;;;;;;;;;;12914343;22;20926;-91
2024/03/18 17:31:25;;;;;;;36.63;21.77;;;;;;;;;;12913817;22;20826;-91
2024/03/18 17:36:29;;;;;;;35.03;21.17;;;;;;;;;;12908988;22;20449;-91
2024/03/18 17:41:32;;;;;;;37.73;22.10;;;;;;;;;;12913604;22;20407;-89
2024/03/18 17:46:34;;;;;;;37.08;21.83;;;;;;;;;;12913722;22;20597;-90
2024/03/18 17:51:38;;;;;;;38.55;21.65;;;;;;;;;;12911735;22;20407;-91
2024/03/18 17:56:40;;;;;;;38.70;22.83;;;;;;;;;;12912640;22;20373;-91
2024/03/18 18:01:43;;;;;;;44.17;24.25;;;;;;;;;;12933775;23;20368;-90
2024/03/18 18:06:48;;;;;;;44.07;25.90;;;;;;;;;;12910307;23;20403;-90
2024/03/18 18:11:50;;;;;;;47.92;27.45;;;;;;;;;;12912191;22;20372;-91
2024/03/18 18:16:53;;;;;;;43.88;26.23;;;;;;;;;;12912801;22;20372;-89
2024/03/18 18:21:56;;;;;;;46.13;26.63;;;;;;;;;;12911827;22;20384;-91
2024/03/18 18:26:58;;;;;;;47.63;27.30;;;;;;;;;;12913446;22;20372;-89
2024/03/18 18:32:01;;;;;;;45.83;26.65;;;;;;;;;;12912109;23;20422;-91
2024/03/18 18:37:07;;;;;;;45.15;27.83;;;;;;;;;;12940155;23;20368;-91
2024/03/18 18:42:10;;;;;;;44.40;27.10;;;;;;;;;;12918103;23;20689;-90
2024/03/18 18:47:12;;;;;;;50.58;28.63;;;;;;;;;;12939345;23;20365;-90
2024/03/18 18:52:17;;;;;;;44.10;28.40;;;;;;;;;;12917838;23;20368;-90
2024/03/18 18:57:19;;;;;;;49.25;28.98;;;;;;;;;;12916372;23;20399;-90
2024/03/18 19:02:21;;;;;;;48.88;28.50;;;;;;;;;;12921723;22;20380;-91
2024/03/18 19:07:27;;;;;;;47.30;28.60;;;;;;;;;;12927026;22;20438;-87
2024/03/18 19:12:30;;;;;;;45.57;28.90;;;;;;;;;;12915495;22;20443;-90
2024/03/18 19:17:35;;;;;;;49.17;29.70;;;;;;;;;;12916584;22;20381;-89
2024/03/18 19:22:42;;;;;;;66.22;36.30;;;;;;;;;;12933007;22;20752;-92
2024/03/18 19:27:46;;;;;;;51.35;29.45;;;;;;;;;;12914817;22;20402;-91
2024/03/18 19:32:49;;;;;;;50.00;28.75;;;;;;;;;;12914362;23;20426;-91
2024/03/18 19:37:54;;;;;;;51.37;30.93;;;;;;;;;;12915487;22;20430;-92
2024/03/18 19:42:59;;;;;;;54.97;30.80;;;;;;;;;;12914308;22;20380;-91
2024/03/18 19:48:03;;;;;;;53.85;30.60;;;;;;;;;;12920547;22;20372;-91
2024/03/18 19:53:07;;;;;;;56.77;31.93;;;;;;;;;;12913625;22;20418;-92
2024/03/18 19:58:10;;;;;;;55.75;32.65;;;;;;;;;;12914699;22;20407;-91
2024/03/18 20:03:15;;;;;;;58.05;34.00;;;;;;;;;;12923146;22;20380;-85
2024/03/18 20:08:19;;;;;;;56.67;35.17;;;;;;;;;;12912267;22;20388;-90
2024/03/18 20:13:23;;;;;;;58.88;35.42;;;;;;;;;;12912719;22;20384;-91
2024/03/18 20:18:26;;;;;;;61.38;35.83;;;;;;;;;;12911418;22;20450;-90
2024/03/18 20:23:31;;;;;;;53.88;33.70;;;;;;;;;;12912349;22;20856;-89
2024/03/18 20:28:33;;;;;;;58.47;35.20;;;;;;;;;;12932274;22;20402;-91
2024/03/18 20:33:39;;;;;;;58.80;35.47;;;;;;;;;;12912626;22;20368;-91
2024/03/18 20:38:45;;;;;;;63.88;34.85;;;;;;;;;;12936136;23;20824;-91
2024/03/18 20:43:51;;;;;;;61.13;36.13;;;;;;;;;;12913884;22;20388;-91
2024/03/18 20:48:55;;;;;;;55.80;33.55;;;;;;;;;;12911651;22;20411;-91
2024/03/18 20:54:02;;;;;;;59.53;34.13;;;;;;;;;;12917406;22;20438;-91
2024/03/18 20:59:05;;;;;;;56.92;33.13;;;;;;;;;;12913665;22;20380;-91
2024/03/18 21:04:08;;;;;;;57.45;34.85;;;;;;;;;;12912987;22;20388;-90
2024/03/18 21:09:13;;;;;;;59.37;35.83;;;;;;;;;;12910004;22;20374;-91
2024/03/18 21:14:16;;;;;;;56.60;34.70;;;;;;;;;;12913549;22;20824;-91
2024/03/18 21:19:19;;;;;;;61.20;35.97;;;;;;;;;;12911914;22;20468;-91
2024/03/18 21:24:23;;;;;;;63.97;37.95;;;;;;;;;;12912809;22;20708;-91
2024/03/18 21:29:25;;;;;;;62.33;36.08;;;;;;;;;;12914228;22;20616;-90
2024/03/18 21:34:28;;;;;;;61.08;36.65;;;;;;;;;;12932618;22;20959;-91
2024/03/18 21:39:32;;;;;;;64.20;37.97;;;;;;;;;;12912510;23;20418;-91
2024/03/18 21:44:34;;;;;;;68.65;41.15;;;;;;;;;;12912760;22;20553;-91
2024/03/18 21:49:36;;;;;;;67.07;38.50;;;;;;;;;;12911041;22;20410;-92
2024/03/18 21:54:40;;;;;;;64.20;39.63;;;;;;;;;;12910029;22;20376;-91
2024/03/18 21:59:43;;;;;;;65.10;39.05;;;;;;;;;;12921898;22;20376;-91
2024/03/18 22:04:46;;;;;;;70.13;39.77;;;;;;;;;;12916449;23;20461;-90
2024/03/18 22:09:51;;;;;;;66.27;39.40;;;;;;;;;;12916442;23;20471;-91
2024/03/18 22:14:54;;;;;;;67.50;39.50;;;;;;;;;;12915747;23;20485;-91
2024/03/18 22:19:56;;;;;;;69.00;39.93;;;;;;;;;;12918784;23;20365;-91
2024/03/18 22:25:00;;;;;;;64.53;38.53;;;;;;;;;;12917907;23;20384;-91
2024/03/18 22:30:03;;;;;;;64.50;38.55;;;;;;;;;;12941715;23;20692;-91
2024/03/18 22:35:06;;;;;;;64.75;36.90;;;;;;;;;;12919325;23;20361;-90
2024/03/18 22:40:11;;;;;;;64.47;38.13;;;;;;;;;;12921741;23;20836;-91
2024/03/18 22:45:15;;;;;;;58.53;36.17;;;;;;;;;;12923998;23;20376;-90
2024/03/18 22:50:18;;;;;;;58.73;36.23;;;;;;;;;;12925961;23;20364;-91
2024/03/18 22:55:22;;;;;;;61.88;35.45;;;;;;;;;;12923641;23;20430;-91
2024/03/18 23:00:29;;;;;;;59.65;34.75;;;;;;;;;;12945704;23;20364;-90
2024/03/18 23:05:31;;;;;;;58.80;34.55;;;;;;;;;;12944076;23;20447;-91
2024/03/18 23:10:35;;;;;;;61.92;36.20;;;;;;;;;;12923932;23;20372;-91
2024/03/18 23:15:38;;;;;;;58.93;34.73;;;;;;;;;;12941288;22;20421;-91
2024/03/18 23:20:40;;;;;;;63.65;36.58;;;;;;;;;;12919405;23;20434;-91
2024/03/18 23:25:43;;;;;;;61.93;36.40;;;;;;;;;;12923018;23;20384;-91
2024/03/18 23:30:47;;;;;;;57.27;34.53;;;;;;;;;;12923847;23;20430;-91
2024/03/18 23:35:50;;;;;;;61.25;35.70;;;;;;;;;;12924303;23;20368;-90
2024/03/18 23:40:54;;;;;;;61.90;36.67;;;;;;;;;;12923352;23;20739;-91
2024/03/18 23:46:04;;;;;;;63.22;38.30;;;;;;;;;;12924757;23;20387;-91
2024/03/18 23:51:08;;;;;;;67.97;38.47;;;;;;;;;;12924270;23;20426;-91
2024/03/18 23:56:13;;;;;;;61.97;36.70;;;;;;;;;;12923843;23;21371;-90
